CFV2 weather

Beiseker Airport
Beiseker, Alberta, Canada

Public forecast

Using degrees Celsius for public forecast. Weather courtesy of forecast.io.

METAR (pilot weather report)

Closest report is Calgary International Airport, 26.6 nm (49.2 km) SW. Retrieved 2019/05/21 02:00 UTC (54 minutes ago):

CYYC 210200Z 19006KT 30SM FEW062 BKN072 07/M02 A2993 RMK SC1AC7 SC TR SLP165

TAF (pilot weather forecast)

Closest forecast is Calgary International Airport, 26.6 nm (49.2 km) SW. Retrieved 2019/05/21 03:41 UTC (0 seconds ago):

TAF CYYC 210238Z 2103/2124 19008KT P6SM SCT050 BKN070 FM210600 18005KT P6SM BKN050 FM210900 16006KT P6SM SCT015 OVC030 FM211200 11005KT P6SM FEW008 OVC020 TEMPO 2113/2115 6SM -SHRA BR BKN008 OVC012 FM211500 10006KT P6SM -SHRA SCT006 OVC012 TEMPO 2115/2118 4SM -SHRA BR OVC006 FM211800 10008KT P6SM -SHRA BKN015 OVC030 FM212100 08008KT P6SM SCT020 OVC040 RMK NXT FCST BY 210600Z